createdAt,value
2023-05-10T00:00:08.004Z,100683.97
2023-05-10T00:02:39.789Z,100684.09
2023-05-10T00:05:09.231Z,100677.88
2023-05-10T00:07:35.822Z,100685.03
2023-05-10T00:10:02.364Z,100683.25
2023-05-10T00:12:28.913Z,100674.44
2023-05-10T00:14:55.455Z,100674.31
2023-05-10T00:17:21.993Z,100672.78
2023-05-10T00:19:49.178Z,100671.94
2023-05-10T00:22:18.109Z,100672.84
2023-05-10T00:24:44.680Z,100667.56
2023-05-10T00:27:11.228Z,100667.66
2023-05-10T00:29:37.782Z,100663.00
2023-05-10T00:32:04.530Z,100656.81
2023-05-10T00:34:31.454Z,100662.19
2023-05-10T00:36:58.030Z,100666.69
2023-05-10T00:39:24.737Z,100660.44
2023-05-10T00:41:51.287Z,100652.31
2023-05-10T00:44:19.395Z,100658.66
2023-05-10T00:46:46.379Z,100660.44
2023-05-10T00:49:13.056Z,100656.91
2023-05-10T00:51:39.590Z,100647.91
2023-05-10T00:54:06.411Z,100652.38
2023-05-10T00:56:33.013Z,100655.13
2023-05-10T00:58:59.614Z,100648.91
2023-05-10T01:01:26.363Z,100637.22
2023-05-10T01:03:53.430Z,100646.22
2023-05-10T01:06:26.198Z,100642.59
2023-05-10T01:08:52.806Z,100648.91
2023-05-10T01:11:19.490Z,100649.69
2023-05-10T01:13:53.787Z,100647.06
2023-05-10T01:16:20.455Z,100643.53
2023-05-10T01:18:50.507Z,100642.59
2023-05-10T01:21:39.867Z,100646.34
2023-05-10T01:24:17.167Z,100649.94
2023-05-10T01:27:15.986Z,100643.00
2023-05-10T01:30:09.251Z,100650.22
2023-05-10T01:32:42.642Z,100646.72
2023-05-10T01:35:28.161Z,100650.06
2023-05-10T01:38:08.854Z,100656.31
2023-05-10T01:41:11.675Z,100651.78
2023-05-10T01:44:00.509Z,100649.16
2023-05-10T01:46:41.457Z,100650.97
2023-05-10T01:49:18.233Z,100651.91
2023-05-10T01:51:50.387Z,100650.13
2023-05-10T01:54:18.989Z,100648.47
2023-05-10T01:56:49.078Z,100654.72
2023-05-10T01:59:19.499Z,100657.28
2023-05-10T02:01:47.464Z,100649.25
2023-05-10T02:04:18.441Z,100653.94
2023-05-10T02:06:47.834Z,100648.47
2023-05-10T02:09:15.386Z,100651.97
2023-05-10T02:11:44.220Z,100657.34
2023-05-10T02:14:11.714Z,100659.31
2023-05-10T02:16:39.229Z,100655.03
2023-05-10T02:19:06.653Z,100659.38
2023-05-10T02:21:36.714Z,100656.88
2023-05-10T02:24:04.213Z,100662.25
2023-05-10T02:26:33.914Z,100665.91
2023-05-10T02:29:01.942Z,100673.06
2023-05-10T02:31:31.146Z,100667.72
2023-05-10T02:34:01.522Z,100666.88
2023-05-10T02:36:28.801Z,100661.44
2023-05-10T02:39:01.864Z,100666.88
2023-05-10T02:41:28.865Z,100659.75
2023-05-10T02:43:58.624Z,100667.84
2023-05-10T02:46:45.563Z,100656.06
2023-05-10T02:49:12.206Z,100657.81
2023-05-10T02:51:42.588Z,100658.81
2023-05-10T02:54:19.451Z,100650.75
2023-05-10T02:56:48.882Z,100652.59
2023-05-10T02:59:15.474Z,100652.59
2023-05-10T03:01:42.190Z,100648.00
2023-05-10T03:04:08.855Z,100649.00
2023-05-10T03:06:36.277Z,100650.81
2023-05-10T03:09:06.156Z,100649.09
2023-05-10T03:11:43.570Z,100655.44
2023-05-10T03:14:20.472Z,100647.41
2023-05-10T03:16:48.663Z,100654.66
2023-05-10T03:19:25.999Z,100658.16
2023-05-10T03:21:54.086Z,100649.28
2023-05-10T03:24:25.730Z,100652.81
2023-05-10T03:26:52.942Z,100658.16
2023-05-10T03:29:19.905Z,100658.09
2023-05-10T03:31:47.145Z,100655.34
2023-05-10T03:34:33.968Z,100661.69
2023-05-10T03:37:00.556Z,100663.53
2023-05-10T03:39:27.166Z,100662.56
2023-05-10T03:41:53.718Z,100664.44
2023-05-10T03:44:20.316Z,100663.47
2023-05-10T03:46:46.941Z,100667.13
2023-05-10T03:49:14.347Z,100674.28
2023-05-10T03:51:41.101Z,100668.09
2023-05-10T03:54:07.774Z,100670.84
2023-05-10T03:56:34.311Z,100669.00
2023-05-10T03:59:00.891Z,100668.09
2023-05-10T04:01:27.459Z,100664.44
2023-05-10T04:03:54.122Z,100669.00
2023-05-10T04:06:21.097Z,100664.56
2023-05-10T04:08:47.697Z,100676.31
2023-05-10T04:11:15.127Z,100678.00
2023-05-10T04:13:41.755Z,100667.25
2023-05-10T04:16:09.613Z,100676.22
2023-05-10T04:18:36.326Z,100668.16
2023-05-10T04:21:02.910Z,100666.38
2023-05-10T04:23:29.513Z,100672.69
2023-05-10T04:26:03.466Z,100673.59
2023-05-10T04:28:30.029Z,100679.81
2023-05-10T04:31:07.593Z,100679.81
2023-05-10T04:33:35.260Z,100683.53
2023-05-10T04:36:02.281Z,100687.06
2023-05-10T04:38:29.690Z,100681.59
2023-05-10T04:41:05.343Z,100683.44
2023-05-10T04:43:31.901Z,100685.13
2023-05-10T04:45:58.515Z,100687.81
2023-05-10T04:48:25.097Z,100690.56
2023-05-10T04:50:51.710Z,100694.19
2023-05-10T04:55:44.644Z,100701.25
2023-05-10T04:58:11.209Z,100701.25
2023-05-10T05:00:37.849Z,100697.72
2023-05-10T05:03:04.506Z,100703.25
2023-05-10T05:05:31.069Z,100700.53
2023-05-10T05:07:57.661Z,100711.09
2023-05-10T05:10:24.262Z,100719.22
2023-05-10T05:12:50.839Z,100716.66
2023-05-10T05:15:19.317Z,100717.50
2023-05-10T05:17:46.009Z,100719.38
2023-05-10T05:20:12.779Z,100724.69
2023-05-10T05:22:41.527Z,100722.94
2023-05-10T05:25:08.515Z,100726.38
2023-05-10T05:27:37.742Z,100730.94
2023-05-10T05:30:05.279Z,100733.69
2023-05-10T05:32:31.853Z,100735.50
2023-05-10T05:34:58.436Z,100737.34
2023-05-10T05:37:25.464Z,100737.34
2023-05-10T05:39:52.193Z,100744.59
2023-05-10T05:42:19.831Z,100743.56
2023-05-10T05:44:54.501Z,100751.56
2023-05-10T05:47:32.669Z,100747.19
2023-05-10T05:50:00.863Z,100753.53
2023-05-10T05:52:27.452Z,100758.84
2023-05-10T05:54:54.008Z,100752.56
2023-05-10T05:57:20.708Z,100753.56
2023-05-10T05:59:47.333Z,100760.84
2023-05-10T06:02:13.991Z,100766.19
2023-05-10T06:04:41.576Z,100768.72
2023-05-10T06:07:11.213Z,100778.66
2023-05-10T06:09:37.788Z,100776.91
2023-05-10T06:12:04.355Z,100778.72
2023-05-10T06:14:35.459Z,100777.91
2023-05-10T06:17:05.075Z,100786.78
2023-05-10T06:19:31.811Z,100787.69
2023-05-10T06:21:58.395Z,100787.66
2023-05-10T06:24:24.941Z,100785.88
2023-05-10T06:26:53.840Z,100796.63
2023-05-10T06:29:20.396Z,100797.47
2023-05-10T06:31:47.434Z,100798.44
2023-05-10T06:34:14.555Z,100801.25
2023-05-10T06:36:41.156Z,100802.97
2023-05-10T06:39:08.112Z,100800.28
2023-05-10T06:41:34.707Z,100801.22
2023-05-10T06:44:02.116Z,100809.19
2023-05-10T06:46:28.686Z,100806.50
2023-05-10T06:48:55.382Z,100803.81
2023-05-10T06:51:22.319Z,100810.13
2023-05-10T06:53:48.858Z,100814.63
2023-05-10T06:56:16.217Z,100828.13
2023-05-10T06:58:42.785Z,100827.16
2023-05-10T07:01:09.661Z,100830.66
2023-05-10T07:03:36.593Z,100820.00
2023-05-10T07:06:13.298Z,100820.00
2023-05-10T07:08:45.162Z,100830.81
2023-05-10T07:11:11.766Z,100835.31
2023-05-10T07:13:40.160Z,100850.56
2023-05-10T07:16:07.444Z,100842.53
2023-05-10T07:18:34.613Z,100841.50
2023-05-10T07:21:01.325Z,100843.28
2023-05-10T07:23:27.968Z,100842.38
2023-05-10T07:25:55.598Z,100843.28
2023-05-10T07:28:22.773Z,100849.56
2023-05-10T07:30:49.366Z,100852.25
2023-05-10T07:33:16.839Z,100859.41
2023-05-10T07:35:44.052Z,100862.91
2023-05-10T07:38:12.091Z,100875.53
2023-05-10T07:40:39.335Z,100872.84
2023-05-10T07:43:05.940Z,100870.22
2023-05-10T07:45:35.617Z,100879.22
2023-05-10T07:48:02.367Z,100880.94
2023-05-10T07:50:29.119Z,100877.44
2023-05-10T07:52:55.865Z,100877.34
2023-05-10T07:55:22.575Z,100872.94
2023-05-10T07:57:49.157Z,100880.84
2023-05-10T08:00:19.102Z,100886.28
2023-05-10T08:02:45.771Z,100890.78
2023-05-10T08:05:12.442Z,100895.25
2023-05-10T08:07:39.067Z,100896.22
2023-05-10T08:10:08.603Z,100907.81
2023-05-10T08:12:35.175Z,100911.41
2023-05-10T08:15:01.735Z,100913.28
2023-05-10T08:17:28.315Z,100908.88
2023-05-10T08:19:54.983Z,100914.97
2023-05-10T08:22:21.564Z,100921.16
2023-05-10T08:24:48.177Z,100927.53
2023-05-10T08:27:14.736Z,100924.84
2023-05-10T08:29:49.678Z,100928.41
2023-05-10T08:32:17.179Z,100924.75
2023-05-10T08:34:43.919Z,100919.63
2023-05-10T08:37:11.537Z,100932.00
2023-05-10T08:39:38.415Z,100925.81
2023-05-10T08:42:05.882Z,100925.81
2023-05-10T08:44:33.621Z,100928.50
2023-05-10T08:47:00.807Z,100926.66
2023-05-10T08:49:28.555Z,100933.91
2023-05-10T08:51:56.893Z,100947.34
2023-05-10T08:54:24.042Z,100948.22
2023-05-10T08:56:50.613Z,100949.13
2023-05-10T08:59:17.288Z,100947.50
2023-05-10T09:01:45.065Z,100952.72
2023-05-10T09:04:13.071Z,100956.28
2023-05-10T09:06:39.709Z,100958.09
2023-05-10T09:09:09.406Z,100961.69
2023-05-10T09:11:38.379Z,100953.53
2023-05-10T09:14:05.354Z,100958.78
2023-05-10T09:16:31.987Z,100960.44
2023-05-10T09:18:58.609Z,100965.00
2023-05-10T09:21:26.071Z,100970.47
2023-05-10T09:23:55.180Z,100972.31
2023-05-10T09:26:24.941Z,100979.53
2023-05-10T09:28:58.111Z,100983.00
2023-05-10T09:31:30.679Z,100990.19
2023-05-10T09:33:57.275Z,100985.69
2023-05-10T09:36:25.842Z,100992.03
2023-05-10T09:38:56.501Z,100994.63
2023-05-10T09:41:24.923Z,100991.88
2023-05-10T09:43:52.448Z,100991.81
2023-05-10T09:46:19.203Z,100995.19
2023-05-10T09:48:47.334Z,100986.50
2023-05-10T09:51:24.029Z,100989.84
2023-05-10T09:54:13.279Z,100997.19
2023-05-10T09:56:41.557Z,100996.13
2023-05-10T09:59:13.385Z,101006.59
2023-05-10T10:01:42.879Z,101002.31
2023-05-10T10:04:11.803Z,100999.75
2023-05-10T10:06:40.710Z,100994.34
2023-05-10T10:09:10.385Z,101004.34
2023-05-10T10:11:57.965Z,101007.94
2023-05-10T10:14:27.547Z,101018.69
2023-05-10T10:17:06.466Z,101020.38
2023-05-10T10:19:36.631Z,101027.38
2023-05-10T10:22:10.785Z,101032.88
2023-05-10T10:24:37.360Z,101027.66
2023-05-10T10:27:22.893Z,101038.31
2023-05-10T10:30:01.601Z,101037.31
2023-05-10T10:32:37.084Z,101043.69
2023-05-10T10:35:05.048Z,101044.50
2023-05-10T10:37:48.310Z,101056.84
2023-05-10T10:40:31.389Z,101055.94
2023-05-10T10:43:29.484Z,101057.81
2023-05-10T10:46:18.458Z,101057.00
2023-05-10T10:48:50.168Z,101056.06
2023-05-10T10:51:17.502Z,101055.16
2023-05-10T10:53:49.199Z,101059.63
2023-05-10T10:56:16.547Z,101056.06
2023-05-10T10:58:52.164Z,101057.03
2023-05-10T11:01:19.861Z,101059.63
2023-05-10T11:04:05.461Z,101063.22
2023-05-10T11:06:39.070Z,101063.94
2023-05-10T11:09:13.321Z,101064.06
2023-05-10T11:12:00.207Z,101067.59
2023-05-10T11:14:26.906Z,101066.78
2023-05-10T11:16:59.180Z,101079.13
2023-05-10T11:19:28.881Z,101073.66
2023-05-10T11:22:07.776Z,101082.50
2023-05-10T11:24:34.829Z,101080.84
2023-05-10T11:27:04.272Z,101071.88
2023-05-10T11:29:31.180Z,101083.41
2023-05-10T11:31:59.354Z,101083.59
2023-05-10T11:34:28.109Z,101077.25
2023-05-10T11:36:55.833Z,101081.63
2023-05-10T11:39:26.482Z,101086.31
2023-05-10T11:41:53.018Z,101089.50
2023-05-10T11:44:19.624Z,101082.50
2023-05-10T11:46:48.543Z,101091.41
2023-05-10T11:49:17.585Z,101100.44
2023-05-10T11:51:44.632Z,101101.50
2023-05-10T11:54:12.245Z,101101.44
2023-05-10T11:56:42.630Z,101099.63
2023-05-10T11:59:09.371Z,101102.22
2023-05-10T12:01:42.336Z,101107.56
2023-05-10T12:04:11.448Z,101102.19
2023-05-10T12:06:41.882Z,101104.97
2023-05-10T12:09:12.272Z,101107.75
2023-05-10T12:11:44.581Z,101113.13
2023-05-10T12:14:11.751Z,101113.97
2023-05-10T12:16:38.445Z,101116.59
2023-05-10T12:19:06.406Z,101120.81
2023-05-10T12:21:34.311Z,101122.69
2023-05-10T12:24:06.377Z,101120.66
2023-05-10T12:26:34.241Z,101117.03
2023-05-10T12:29:35.535Z,101121.69
2023-05-10T12:32:03.605Z,101128.84
2023-05-10T12:34:34.729Z,101125.31
2023-05-10T12:37:01.691Z,101139.50
2023-05-10T12:39:55.177Z,101135.06
2023-05-10T12:42:21.826Z,101144.78
2023-05-10T12:44:48.378Z,101138.47
2023-05-10T12:47:14.932Z,101139.50
2023-05-10T12:49:41.552Z,101137.72
2023-05-10T12:52:08.182Z,101144.78
2023-05-10T12:54:42.237Z,101141.91
2023-05-10T12:57:11.409Z,101151.94
2023-05-10T12:59:39.241Z,101147.47
2023-05-10T13:02:09.270Z,101150.25
2023-05-10T13:04:35.982Z,101154.53
2023-05-10T13:07:05.885Z,101157.19
2023-05-10T13:09:32.460Z,101154.53
2023-05-10T13:11:59.025Z,101150.78
2023-05-10T13:14:29.199Z,101162.50
2023-05-10T13:16:58.578Z,101158.84
2023-05-10T13:19:27.913Z,101158.75
2023-05-10T13:21:57.380Z,101158.75
2023-05-10T13:24:23.938Z,101167.66
2023-05-10T13:26:50.527Z,101169.16
2023-05-10T13:29:19.000Z,101160.31
2023-05-10T13:31:45.801Z,101162.22
2023-05-10T13:34:12.569Z,101169.25
2023-05-10T13:36:39.291Z,101172.13
2023-05-10T13:39:08.521Z,101174.75
2023-05-10T13:41:35.139Z,101172.34
2023-05-10T13:44:01.782Z,101173.06
2023-05-10T13:46:30.724Z,101178.56
2023-05-10T13:48:57.876Z,101183.00
2023-05-10T13:51:24.480Z,101180.31
2023-05-10T13:53:51.066Z,101178.50
2023-05-10T13:56:17.618Z,101178.63
2023-05-10T13:58:44.274Z,101176.63
2023-05-10T14:01:13.838Z,101181.00
2023-05-10T14:03:40.621Z,101186.38
2023-05-10T14:06:12.883Z,101180.97
2023-05-10T14:08:39.442Z,101176.53
2023-05-10T14:11:08.604Z,101182.00
2023-05-10T14:13:35.285Z,101178.34
2023-05-10T14:16:04.862Z,101181.72
2023-05-10T14:18:31.717Z,101187.09
2023-05-10T14:20:58.318Z,101189.78
2023-05-10T14:23:29.693Z,101183.34
2023-05-10T14:26:08.837Z,101184.75
2023-05-10T14:28:35.453Z,101184.09
2023-05-10T14:31:02.076Z,101192.19
2023-05-10T14:33:28.654Z,101190.34
2023-05-10T14:35:59.108Z,101192.06
2023-05-10T14:38:25.679Z,101190.28
2023-05-10T14:40:52.326Z,101193.91
2023-05-10T14:43:18.968Z,101193.91
2023-05-10T14:45:48.754Z,101194.72
2023-05-10T14:48:18.276Z,101189.31
2023-05-10T14:50:48.051Z,101194.66
2023-05-10T14:53:17.499Z,101193.81
2023-05-10T14:55:46.788Z,101197.34
2023-05-10T14:58:13.329Z,101200.91
2023-05-10T15:00:39.919Z,101209.00
2023-05-10T15:03:09.500Z,101211.69
2023-05-10T15:05:38.321Z,101222.44
2023-05-10T15:08:06.433Z,101216.09
2023-05-10T15:10:36.044Z,101208.03
2023-05-10T15:13:06.753Z,101215.19
2023-05-10T15:15:33.466Z,101215.25
2023-05-10T15:18:00.230Z,101220.44
2023-05-10T15:20:26.910Z,101217.72
2023-05-10T15:22:54.312Z,101215.03
2023-05-10T15:25:21.085Z,101224.91
2023-05-10T15:27:47.639Z,101222.22
2023-05-10T15:30:14.430Z,101225.75
2023-05-10T15:32:41.521Z,101228.50
2023-05-10T15:35:13.003Z,101238.31
2023-05-10T15:37:46.470Z,101236.47
2023-05-10T15:40:15.434Z,101237.38
2023-05-10T15:43:02.087Z,101243.53
2023-05-10T15:45:37.427Z,101239.03
2023-05-10T15:48:04.628Z,101247.16
2023-05-10T15:50:31.237Z,101244.53
2023-05-10T15:52:57.785Z,101250.75
2023-05-10T15:55:24.399Z,101253.44
2023-05-10T15:57:53.659Z,101248.91
2023-05-10T16:00:23.353Z,101250.75
2023-05-10T16:02:53.129Z,101253.44
2023-05-10T16:05:20.091Z,101261.53
2023-05-10T16:07:49.470Z,101265.09
2023-05-10T16:10:18.707Z,101263.31
2023-05-10T16:12:45.318Z,101267.81
2023-05-10T16:15:11.911Z,101277.63
2023-05-10T16:17:38.552Z,101276.72
2023-05-10T16:20:05.782Z,101272.25
2023-05-10T16:22:34.883Z,101274.03
2023-05-10T16:25:01.639Z,101283.06
2023-05-10T16:27:30.375Z,101283.00
2023-05-10T16:30:01.508Z,101283.00
2023-05-10T16:32:30.423Z,101286.63
2023-05-10T16:34:56.978Z,101284.78
2023-05-10T16:37:25.102Z,101291.00
2023-05-10T16:39:54.273Z,101281.94
2023-05-10T16:42:22.087Z,101281.03
2023-05-10T16:44:52.480Z,101286.41
2023-05-10T16:47:19.010Z,101295.41
2023-05-10T16:49:47.696Z,101295.47
2023-05-10T16:52:14.245Z,101295.41
2023-05-10T16:54:40.779Z,101299.03
2023-05-10T16:57:11.249Z,101290.94
2023-05-10T16:59:40.643Z,101293.63
2023-05-10T17:02:10.110Z,101288.41
2023-05-10T17:04:36.766Z,101292.00
2023-05-10T17:07:13.192Z,101295.63
2023-05-10T17:09:41.882Z,101297.38
2023-05-10T17:12:08.542Z,101299.22
2023-05-10T17:14:36.862Z,101301.09
2023-05-10T17:17:03.772Z,101306.47
2023-05-10T17:19:30.689Z,101308.31
2023-05-10T17:21:57.284Z,101303.78
2023-05-10T17:24:23.854Z,101312.78
2023-05-10T17:26:50.414Z,101317.25
2023-05-10T17:29:17.035Z,101324.47
2023-05-10T17:31:43.671Z,101322.63
2023-05-10T17:34:10.305Z,101320.00
2023-05-10T17:36:36.875Z,101321.81
2023-05-10T17:39:03.437Z,101321.81
2023-05-10T17:41:29.988Z,101328.06
2023-05-10T17:43:56.533Z,101336.25
2023-05-10T17:46:23.317Z,101332.69
2023-05-10T17:48:50.686Z,101338.13
2023-05-10T17:51:21.094Z,101334.47
2023-05-10T17:54:00.065Z,101337.06
2023-05-10T17:56:29.677Z,101342.44
2023-05-10T17:58:56.242Z,101350.56
2023-05-10T18:01:22.843Z,101349.66
2023-05-10T18:03:50.995Z,101353.22
2023-05-10T18:06:20.124Z,101353.22
2023-05-10T18:08:46.677Z,101358.59
2023-05-10T18:11:13.291Z,101356.97
2023-05-10T18:13:41.363Z,101356.91
2023-05-10T18:16:08.914Z,101356.97
2023-05-10T18:18:44.085Z,101365.13
2023-05-10T18:21:11.174Z,101360.66
2023-05-10T18:23:38.596Z,101357.09
2023-05-10T18:26:06.896Z,101366.09
2023-05-10T18:28:33.481Z,101360.56
2023-05-10T18:31:00.095Z,101361.56
2023-05-10T18:33:26.754Z,101366.03
2023-05-10T18:35:53.293Z,101364.25
2023-05-10T18:38:20.145Z,101367.88
2023-05-10T18:40:46.688Z,101368.78
2023-05-10T18:43:13.226Z,101373.19
2023-05-10T18:45:39.758Z,101373.19
2023-05-10T18:48:07.800Z,101367.91
2023-05-10T18:50:35.306Z,101368.81
2023-05-10T18:53:03.624Z,101369.78
2023-05-10T18:55:30.390Z,101373.34
2023-05-10T18:57:56.987Z,101373.34
2023-05-10T19:00:23.757Z,101369.78
2023-05-10T19:02:53.725Z,101376.13
2023-05-10T19:05:20.675Z,101384.16
2023-05-10T19:07:47.395Z,101375.16
2023-05-10T19:10:16.657Z,101378.72
2023-05-10T19:12:43.360Z,101385.94
2023-05-10T19:15:10.545Z,101385.00
2023-05-10T19:17:43.267Z,101385.94
2023-05-10T19:20:14.123Z,101392.19
2023-05-10T19:23:02.104Z,101391.34
2023-05-10T19:25:35.823Z,101389.53
2023-05-10T19:28:07.143Z,101392.34
2023-05-10T19:30:39.980Z,101403.06
2023-05-10T19:33:10.206Z,101397.78
2023-05-10T19:35:37.371Z,101399.66
2023-05-10T19:38:09.924Z,101404.94
2023-05-10T19:40:46.856Z,101407.75
2023-05-10T19:43:16.442Z,101418.53
2023-05-10T19:45:42.982Z,101418.53
2023-05-10T19:48:12.879Z,101430.28
2023-05-10T19:50:45.458Z,101427.63
2023-05-10T19:53:12.075Z,101430.31
2023-05-10T19:55:40.606Z,101427.63
2023-05-10T19:58:07.190Z,101428.53
2023-05-10T20:00:33.875Z,101433.00
2023-05-10T20:03:00.556Z,101432.94
2023-05-10T20:05:29.593Z,101431.22
2023-05-10T20:08:03.076Z,101427.78
2023-05-10T20:10:32.247Z,101438.44
2023-05-10T20:12:59.167Z,101424.97
2023-05-10T20:15:25.914Z,101442.06
2023-05-10T20:17:55.652Z,101443.97
2023-05-10T20:20:22.569Z,101440.28
2023-05-10T20:22:52.384Z,101434.91
2023-05-10T20:25:19.141Z,101436.84
2023-05-10T20:27:45.811Z,101431.38
2023-05-10T20:30:12.703Z,101437.69
2023-05-10T20:32:39.421Z,101435.03
2023-05-10T20:35:07.111Z,101437.06
2023-05-10T20:37:33.700Z,101437.03
2023-05-10T20:40:00.281Z,101439.81
2023-05-10T20:42:27.083Z,101432.72
2023-05-10T20:44:53.717Z,101437.25
2023-05-10T20:47:20.371Z,101438.09
2023-05-10T20:49:46.974Z,101438.09
2023-05-10T20:52:13.825Z,101435.50
2023-05-10T20:54:40.503Z,101439.13
2023-05-10T20:57:07.311Z,101435.59
2023-05-10T20:59:34.051Z,101437.38
2023-05-10T21:02:00.676Z,101428.34
2023-05-10T21:04:27.348Z,101426.66
2023-05-10T21:06:55.653Z,101432.94
2023-05-10T21:09:22.328Z,101426.66
2023-05-10T21:11:49.809Z,101428.53
2023-05-10T21:14:16.482Z,101439.28
2023-05-10T21:16:43.162Z,101436.56
2023-05-10T21:19:10.048Z,101441.09
2023-05-10T21:21:36.683Z,101444.69
2023-05-10T21:24:07.340Z,101454.63
2023-05-10T21:26:33.893Z,101456.31
2023-05-10T21:29:00.711Z,101457.31
2023-05-10T21:31:28.028Z,101459.06
2023-05-10T21:33:54.638Z,101451.97
2023-05-10T21:36:21.289Z,101453.75
2023-05-10T21:38:48.604Z,101448.41
2023-05-10T21:41:15.243Z,101439.31
2023-05-10T21:43:41.807Z,101444.78
2023-05-10T21:46:13.041Z,101445.66
2023-05-10T21:48:39.829Z,101443.91
2023-05-10T21:51:07.100Z,101443.09
2023-05-10T21:53:33.678Z,101445.78
2023-05-10T21:56:00.245Z,101453.84
2023-05-10T21:58:27.598Z,101448.50
2023-05-10T22:00:54.166Z,101461.91
2023-05-10T22:03:21.054Z,101455.75
2023-05-10T22:05:48.536Z,101454.03
2023-05-10T22:08:15.179Z,101455.84
2023-05-10T22:10:41.776Z,101461.25
2023-05-10T22:13:08.320Z,101454.13
2023-05-10T22:15:36.497Z,101454.97
2023-05-10T22:18:03.444Z,101459.44
2023-05-10T22:20:30.040Z,101472.88
2023-05-10T22:22:57.564Z,101464.81
2023-05-10T22:25:24.181Z,101460.41
2023-05-10T22:27:50.766Z,101464.00
2023-05-10T22:30:17.912Z,101457.78
2023-05-10T22:32:44.716Z,101465.81
2023-05-10T22:35:11.528Z,101464.91
2023-05-10T22:37:38.144Z,101468.50
2023-05-10T22:40:05.225Z,101469.41
2023-05-10T22:42:32.603Z,101473.03
2023-05-10T22:44:59.159Z,101465.91
2023-05-10T22:47:25.906Z,101481.09
2023-05-10T22:49:52.747Z,101479.31
2023-05-10T22:52:19.292Z,101480.31
2023-05-10T22:54:47.486Z,101486.47
2023-05-10T22:57:17.253Z,101490.09
2023-05-10T22:59:43.940Z,101487.28
2023-05-10T23:02:10.649Z,101482.97
2023-05-10T23:04:37.328Z,101486.53
2023-05-10T23:07:03.968Z,101497.25
2023-05-10T23:09:30.521Z,101500.91
2023-05-10T23:11:57.517Z,101496.44
2023-05-10T23:14:27.144Z,101493.66
2023-05-10T23:16:56.234Z,101499.94
2023-05-10T23:19:26.131Z,101501.69
2023-05-10T23:21:55.584Z,101497.41
2023-05-10T23:24:24.627Z,101500.91
2023-05-10T23:26:51.240Z,101502.69
2023-05-10T23:29:20.490Z,101498.19
2023-05-10T23:31:50.646Z,101496.47
2023-05-10T23:34:17.542Z,101498.16
2023-05-10T23:36:44.139Z,101497.34
2023-05-10T23:39:11.847Z,101493.81
2023-05-10T23:41:41.306Z,101507.38
2023-05-10T23:44:07.885Z,101502.78
2023-05-10T23:46:34.459Z,101503.75
2023-05-10T23:49:02.572Z,101484.81
2023-05-10T23:51:32.819Z,101497.50
2023-05-10T23:53:59.366Z,101491.31
2023-05-10T23:56:26.806Z,101495.69
2023-05-10T23:58:53.419Z,101496.63
